Time,TemperatureF,DewpointF,PressureIn,WindDirection,WindDirectionDegrees,WindSpeedMPH,WindSpeedGustMPH,Humidity,HourlyPrecipIn,Conditions,Clouds,dailyrainin,SolarRadiationWatts/m^2,SoftwareType,DateUTC
2013-06-29 00:02:00,79.0,36.0,-100.00,South,188,11.0,20.0,21,0.00,,,0.00,267.000000,,2013-06-29 00:02:00,
2013-06-29 00:11:00,79.0,36.0,-100.00,South,188,11.0,20.0,21,0.00,,,0.00,267.000000,,2013-06-29 00:11:00,
2013-06-29 00:22:00,79.0,36.0,-100.00,South,188,11.0,20.0,21,0.00,,,0.00,267.000000,,2013-06-29 00:22:00,
2013-06-29 01:01:00,74.0,39.0,-100.00,SSE,162,8.0,22.0,28,-99.99,,,0.00,147.000000,,2013-06-29 01:01:00,
2013-06-29 01:11:00,74.0,39.0,-100.00,SSE,162,8.0,22.0,28,-99.99,,,0.00,147.000000,,2013-06-29 01:11:00,
2013-06-29 01:22:00,74.0,39.0,-100.00,SSE,162,8.0,22.0,28,-99.99,,,0.00,147.000000,,2013-06-29 01:22:00,
2013-06-29 01:31:00,74.0,39.0,-100.00,SSE,162,8.0,22.0,28,-99.99,,,0.00,147.000000,,2013-06-29 01:31:00,
2013-06-29 02:01:00,70.0,38.0,-100.00,South,176,15.0,23.0,31,0.00,,,0.00,45.000000,,2013-06-29 02:01:00,
2013-06-29 02:11:00,70.0,38.0,-100.00,South,176,15.0,23.0,31,0.00,,,0.00,45.000000,,2013-06-29 02:11:00,
2013-06-29 02:21:00,70.0,38.0,-100.00,South,176,15.0,23.0,31,0.00,,,0.00,45.000000,,2013-06-29 02:21:00,
2013-06-29 02:31:00,70.0,38.0,-100.00,South,176,15.0,23.0,31,0.00,,,0.00,45.000000,,2013-06-29 02:31:00,
2013-06-29 03:01:00,67.0,38.0,-100.00,South,185,7.0,22.0,35,0.00,,,0.00,12.000000,,2013-06-29 03:01:00,
2013-06-29 03:11:00,67.0,38.0,-100.00,South,185,7.0,22.0,35,0.00,,,0.00,12.000000,,2013-06-29 03:11:00,
2013-06-29 03:21:00,67.0,38.0,-100.00,South,185,7.0,22.0,35,0.00,,,0.00,12.000000,,2013-06-29 03:21:00,
2013-06-29 03:32:00,67.0,38.0,-100.00,South,185,7.0,22.0,35,0.00,,,0.00,12.000000,,2013-06-29 03:32:00,
2013-06-29 04:01:00,62.0,45.0,-100.00,SE,144,6.0,13.0,53,0.00,,,0.00,0.000000,,2013-06-29 04:01:00,
2013-06-29 04:11:00,62.0,45.0,-100.00,SE,144,6.0,13.0,53,0.00,,,0.00,0.000000,,2013-06-29 04:11:00,
2013-06-29 04:23:00,62.0,45.0,-100.00,SE,144,6.0,13.0,53,0.00,,,0.00,0.000000,,2013-06-29 04:23:00,
2013-06-29 04:31:00,62.0,45.0,-100.00,SE,144,6.0,13.0,53,0.00,,,0.00,0.000000,,2013-06-29 04:31:00,
2013-06-29 05:01:00,59.0,41.0,-100.00,ESE,118,5.0,14.0,52,0.00,,,0.00,0.000000,,2013-06-29 05:01:00,
2013-06-29 05:10:00,59.0,41.0,-100.00,ESE,118,5.0,14.0,52,0.00,,,0.00,0.000000,,2013-06-29 05:10:00,
2013-06-29 05:21:00,59.0,41.0,-100.00,ESE,118,5.0,14.0,52,0.00,,,0.00,0.000000,,2013-06-29 05:21:00,
2013-06-29 05:31:00,59.0,41.0,-100.00,ESE,118,5.0,14.0,52,0.00,,,0.00,0.000000,,2013-06-29 05:31:00,
2013-06-29 06:33:00,53.0,40.0,-100.00,NNE,29,3.0,5.0,62,0.00,,,0.00,0.000000,,2013-06-29 06:33:00,
2013-06-29 08:01:00,54.0,39.0,-100.00,North,0,9.0,13.0,56,-99.99,,,0.00,0.000000,,2013-06-29 08:01:00,
2013-06-29 08:12:00,54.0,39.0,-100.00,North,0,9.0,13.0,56,-99.99,,,0.00,0.000000,,2013-06-29 08:12:00,
2013-06-29 08:22:00,54.0,39.0,-100.00,North,0,9.0,13.0,56,-99.99,,,0.00,0.000000,,2013-06-29 08:22:00,
2013-06-29 08:33:00,54.0,39.0,-100.00,North,0,9.0,13.0,56,-99.99,,,0.00,0.000000,,2013-06-29 08:33:00,
2013-06-29 09:02:00,57.0,41.0,-100.00,NNE,17,12.0,17.0,54,0.00,,,0.00,0.000000,,2013-06-29 09:02:00,
2013-06-29 09:12:00,57.0,41.0,-100.00,NNE,17,12.0,17.0,54,0.00,,,0.00,0.000000,,2013-06-29 09:12:00,
2013-06-29 09:22:00,57.0,41.0,-100.00,NNE,17,12.0,17.0,54,0.00,,,0.00,0.000000,,2013-06-29 09:22:00,
2013-06-29 09:33:00,57.0,41.0,-100.00,NNE,17,12.0,17.0,54,0.00,,,0.00,0.000000,,2013-06-29 09:33:00,
2013-06-29 10:01:00,56.0,40.0,-100.00,NNE,15,10.0,15.0,55,0.00,,,0.00,0.000000,,2013-06-29 10:01:00,
2013-06-29 10:11:00,56.0,40.0,-100.00,NNE,15,10.0,15.0,55,0.00,,,0.00,0.000000,,2013-06-29 10:11:00,
2013-06-29 10:22:00,56.0,40.0,-100.00,NNE,15,10.0,15.0,55,0.00,,,0.00,0.000000,,2013-06-29 10:22:00,
2013-06-29 10:33:00,56.0,40.0,-100.00,NNE,15,10.0,15.0,55,0.00,,,0.00,0.000000,,2013-06-29 10:33:00,
2013-06-29 11:01:00,52.0,40.0,-100.00,NNE,14,7.0,15.0,64,0.00,,,0.00,0.000000,,2013-06-29 11:01:00,
2013-06-29 11:11:00,52.0,40.0,-100.00,NNE,14,7.0,15.0,64,0.00,,,0.00,0.000000,,2013-06-29 11:11:00,
2013-06-29 11:23:00,52.0,40.0,-100.00,NNE,14,7.0,15.0,64,0.00,,,0.00,0.000000,,2013-06-29 11:23:00,
2013-06-29 11:33:00,52.0,40.0,-100.00,NNE,14,7.0,15.0,64,0.00,,,0.00,0.000000,,2013-06-29 11:33:00,
2013-06-29 12:02:00,48.0,38.0,-100.00,North,351,7.0,12.0,69,0.00,,,0.00,0.000000,,2013-06-29 12:02:00,
2013-06-29 12:12:00,48.0,38.0,-100.00,North,351,7.0,12.0,69,0.00,,,0.00,0.000000,,2013-06-29 12:12:00,
2013-06-29 12:22:00,48.0,38.0,-100.00,North,351,7.0,12.0,69,0.00,,,0.00,0.000000,,2013-06-29 12:22:00,
2013-06-29 12:34:00,48.0,38.0,-100.00,North,351,7.0,12.0,69,0.00,,,0.00,0.000000,,2013-06-29 12:34:00,
2013-06-29 13:02:00,49.0,39.0,-100.00,North,355,4.0,9.0,69,0.00,,,0.00,18.000000,,2013-06-29 13:02:00,
2013-06-29 13:11:00,49.0,39.0,-100.00,North,355,4.0,9.0,69,0.00,,,0.00,18.000000,,2013-06-29 13:11:00,
2013-06-29 13:23:00,49.0,39.0,-100.00,North,355,4.0,9.0,69,0.00,,,0.00,18.000000,,2013-06-29 13:23:00,
2013-06-29 13:34:00,49.0,39.0,-100.00,North,355,4.0,9.0,69,0.00,,,0.00,18.000000,,2013-06-29 13:34:00,
2013-06-29 14:02:00,59.0,41.0,-100.00,SE,144,2.0,6.0,52,0.00,,,0.00,99.000000,,2013-06-29 14:02:00,
2013-06-29 14:12:00,59.0,41.0,-100.00,SE,144,2.0,6.0,52,0.00,,,0.00,99.000000,,2013-06-29 14:12:00,
2013-06-29 14:23:00,59.0,41.0,-100.00,SE,144,2.0,6.0,52,0.00,,,0.00,99.000000,,2013-06-29 14:23:00,
2013-06-29 14:33:00,59.0,41.0,-100.00,SE,144,2.0,6.0,52,0.00,,,0.00,99.000000,,2013-06-29 14:33:00,
2013-06-29 15:01:00,63.0,42.0,-100.00,SSW,208,4.0,5.0,46,0.00,,,0.00,198.000000,,2013-06-29 15:01:00,
2013-06-29 15:11:00,63.0,42.0,-100.00,SSW,208,4.0,5.0,46,0.00,,,0.00,198.000000,,2013-06-29 15:11:00,
2013-06-29 15:22:00,63.0,42.0,-100.00,SSW,208,4.0,5.0,46,0.00,,,0.00,198.000000,,2013-06-29 15:22:00,
2013-06-29 15:33:00,63.0,42.0,-100.00,SSW,208,4.0,5.0,46,0.00,,,0.00,198.000000,,2013-06-29 15:33:00,
2013-06-29 16:02:00,72.0,41.0,-100.00,South,175,6.0,11.0,33,0.00,,,0.00,520.000000,,2013-06-29 16:02:00,
2013-06-29 16:12:00,72.0,41.0,-100.00,South,175,6.0,11.0,33,0.00,,,0.00,520.000000,,2013-06-29 16:12:00,
2013-06-29 16:22:00,72.0,41.0,-100.00,South,175,6.0,11.0,33,0.00,,,0.00,520.000000,,2013-06-29 16:22:00,
2013-06-29 16:33:00,72.0,41.0,-100.00,South,175,6.0,11.0,33,0.00,,,0.00,520.000000,,2013-06-29 16:33:00,
2013-06-29 17:01:00,74.0,38.0,-100.00,SSE,156,7.0,14.0,27,0.00,,,0.00,639.000000,,2013-06-29 17:01:00,
2013-06-29 17:12:00,74.0,38.0,-100.00,SSE,156,7.0,14.0,27,0.00,,,0.00,639.000000,,2013-06-29 17:12:00,
2013-06-29 17:22:00,74.0,38.0,-100.00,SSE,156,7.0,14.0,27,0.00,,,0.00,639.000000,,2013-06-29 17:22:00,
2013-06-29 17:33:00,74.0,38.0,-100.00,SSE,156,7.0,14.0,27,0.00,,,0.00,639.000000,,2013-06-29 17:33:00,
2013-06-29 18:01:00,79.0,39.0,-100.00,South,180,6.0,12.0,24,0.00,,,0.00,823.000000,,2013-06-29 18:01:00,
2013-06-29 18:12:00,79.0,39.0,-100.00,South,180,6.0,12.0,24,0.00,,,0.00,823.000000,,2013-06-29 18:12:00,
2013-06-29 18:22:00,79.0,39.0,-100.00,South,180,6.0,12.0,24,0.00,,,0.00,823.000000,,2013-06-29 18:22:00,
2013-06-29 18:34:00,79.0,39.0,-100.00,South,180,6.0,12.0,24,0.00,,,0.00,823.000000,,2013-06-29 18:34:00,
2013-06-29 19:01:00,76.0,38.0,-100.00,South,171,7.0,18.0,25,0.00,,,0.00,773.000000,,2013-06-29 19:01:00,
2013-06-29 19:12:00,76.0,38.0,-100.00,South,171,7.0,18.0,25,0.00,,,0.00,773.000000,,2013-06-29 19:12:00,
2013-06-29 19:22:00,76.0,38.0,-100.00,South,171,7.0,18.0,25,0.00,,,0.00,773.000000,,2013-06-29 19:22:00,
2013-06-29 19:34:00,76.0,38.0,-100.00,South,171,7.0,18.0,25,0.00,,,0.00,773.000000,,2013-06-29 19:34:00,
2013-06-29 20:02:00,68.0,48.0,-100.00,ENE,60,6.0,12.0,48,0.00,,,0.00,73.000000,,2013-06-29 20:02:00,
2013-06-29 20:11:00,68.0,48.0,-100.00,ENE,60,6.0,12.0,48,0.00,,,0.00,73.000000,,2013-06-29 20:11:00,
2013-06-29 20:23:00,68.0,48.0,-100.00,ENE,60,6.0,12.0,48,0.00,,,0.00,73.000000,,2013-06-29 20:23:00,
2013-06-29 20:33:00,68.0,48.0,-100.00,ENE,60,6.0,12.0,48,0.00,,,0.00,73.000000,,2013-06-29 20:33:00,
2013-06-29 21:02:00,69.0,48.0,-100.00,SW,232,9.0,22.0,48,0.00,,,0.00,245.000000,,2013-06-29 21:02:00,
2013-06-29 21:11:00,69.0,48.0,-100.00,SW,232,9.0,22.0,48,0.00,,,0.00,245.000000,,2013-06-29 21:11:00,
2013-06-29 21:22:00,69.0,48.0,-100.00,SW,232,9.0,22.0,48,0.00,,,0.00,245.000000,,2013-06-29 21:22:00,
2013-06-29 21:32:00,69.0,48.0,-100.00,SW,232,9.0,22.0,48,0.00,,,0.00,245.000000,,2013-06-29 21:32:00,
2013-06-29 22:01:00,64.0,47.0,-100.00,NW,306,10.0,19.0,55,0.03,,,0.03,107.000000,,2013-06-29 22:01:00,
2013-06-29 22:11:00,64.0,47.0,-100.00,NW,306,10.0,19.0,55,0.03,,,0.03,107.000000,,2013-06-29 22:11:00,
2013-06-29 22:21:00,64.0,47.0,-100.00,NW,306,10.0,19.0,55,0.03,,,0.03,107.000000,,2013-06-29 22:21:00,
2013-06-29 22:33:00,64.0,47.0,-100.00,NW,306,10.0,19.0,55,0.03,,,0.03,107.000000,,2013-06-29 22:33:00,